Time;durP1;ratioP1;P1;durP2;ratioP2;P2;SDS_P1;SDS_P2;PMS_P1;PMS_P2;Temp;Humidity;BMP_temperature;BMP_pressure;BME280_temperature;BME280_humidity;BME280_pressure;Samples;Min_cycle;Max_cycle;Signal;HPM_P1;HPM_P2
2023/09/08 00:03:28;;;;;;;15.45;14.00;;;17.90;99.90;;;;;;6026131;23;20034;-79
2023/09/08 00:06:10;;;;;;;14.95;13.63;;;18.00;99.90;;;;;;5992220;23;20360;-80
2023/09/08 00:13:44;;;;;;;;;;;;;;;;;;;;;
2023/09/08 00:16:46;;;;;;;15.90;14.40;;;18.00;99.90;;;;;;5952892;23;20135;-80
2023/09/08 00:23:38;;;;;;;17.35;15.70;;;18.10;99.90;;;;;;6084143;23;20021;-81
2023/09/08 00:27:18;;;;;;;15.18;13.90;;;18.00;99.90;;;;;;5999983;23;20103;-80
2023/09/08 00:34:21;;;;;;;;;;;;;;;;;;;;;
2023/09/08 00:41:41;;;;;;;17.98;16.40;;;17.30;99.90;;;;;;6070096;23;20053;-80
2023/09/08 00:45:09;;;;;;;18.38;16.83;;;17.10;99.90;;;;;;6076975;23;20051;-81
2023/09/08 01:00:06;;;;;;;;;;;;;;;;;;;;;
2023/09/08 01:03:34;;;;;;;21.70;20.00;;;16.50;99.90;;;;;;5909107;24;20079;-81
2023/09/08 01:07:10;;;;;;;23.38;21.30;;;16.30;99.90;;;;;;5904101;24;20031;-83
2023/09/08 01:11:14;;;;;;;;;;;;;;;;;;;;;
2023/09/08 01:14:21;;;;;;;22.20;20.42;;;16.10;99.90;;;;;;5899681;24;20065;-82
2023/09/08 01:18:16;;;;;;;22.08;20.00;;;16.10;99.90;;;;;;5848001;24;20071;-81
2023/09/08 01:21:46;;;;;;;25.20;22.95;;;16.10;99.90;;;;;;5763929;24;20050;-81
2023/09/08 01:28:54;;;;;;;23.83;21.80;;;15.90;99.90;;;;;;5813209;24;20035;-81
2023/09/08 01:36:20;;;;;;;;;;;;;;;;;;;;;
2023/09/08 01:39:49;;;;;;;20.17;18.58;;;15.80;99.90;;;;;;5779317;24;20028;-82
2023/09/08 01:43:25;;;;;;;;;;;;;;;;;;;;;
2023/09/08 01:46:18;;;;;;;21.05;19.42;;;15.60;99.90;;;;;;5837208;24;20050;-82
2023/09/08 01:49:25;;;;;;;21.25;19.50;;;15.50;99.90;;;;;;5829202;24;20017;-81
2023/09/08 01:53:08;;;;;;;21.80;20.10;;;15.50;99.90;;;;;;5862490;24;20010;-82
2023/09/08 01:56:54;;;;;;;25.73;21.83;;;15.40;99.90;;;;;;5905073;24;20364;-81
2023/09/08 02:00:31;;;;;;;25.88;23.88;;;15.30;99.90;;;;;;5867682;24;20025;-81
2023/09/08 02:07:44;;;;;;;28.75;26.38;;;15.30;99.90;;;;;;5883212;24;20496;-82
2023/09/08 02:15:36;;;;;;;23.10;21.38;;;15.50;99.90;;;;;;5723083;25;20099;-81
2023/09/08 02:23:12;;;;;;;26.40;24.25;;;15.80;99.90;;;;;;5691149;25;20032;-81
2023/09/08 02:34:24;;;;;;;25.92;23.92;;;15.70;99.90;;;;;;5832551;24;20052;-81
2023/09/08 02:38:09;;;;;;;26.77;24.65;;;15.60;99.90;;;;;;5822418;24;20468;-82
2023/09/08 02:42:00;;;;;;;27.70;25.50;;;15.50;99.90;;;;;;5845528;24;20025;-81
2023/09/08 02:45:44;;;;;;;29.85;27.48;;;15.40;99.90;;;;;;5824665;24;20038;-82
2023/09/08 03:00:52;;;;;;;33.85;31.23;;;15.20;99.90;;;;;;5985335;23;20038;-83
2023/09/08 03:04:55;;;;;;;29.40;27.15;;;15.10;99.90;;;;;;5989582;23;20157;-81
2023/09/08 03:35:29;;;;;;;35.90;33.00;;;15.00;99.90;;;;;;5819606;24;20030;-81
2023/09/08 03:39:16;;;;;;;30.33;27.90;;;14.90;99.90;;;;;;5818414;24;20041;-81
2023/09/08 03:43:20;;;;;;;40.42;37.03;;;15.00;99.90;;;;;;5792456;24;20529;-82
2023/09/08 03:47:19;;;;;;;33.55;30.70;;;14.90;99.90;;;;;;5851552;24;20025;-81
2023/09/08 03:51:17;;;;;;;36.22;33.22;;;14.80;99.90;;;;;;5818325;24;20150;-81
2023/09/08 03:55:04;;;;;;;32.92;30.35;;;14.80;99.90;;;;;;5872983;24;20021;-81
2023/09/08 03:58:52;;;;;;;32.22;29.63;;;14.80;99.90;;;;;;5846041;24;20064;-81
2023/09/08 04:06:55;;;;;;;28.58;26.25;;;14.90;99.90;;;;;;5766365;24;20113;-82
2023/09/08 04:14:28;;;;;;;34.85;32.05;;;14.70;99.90;;;;;;5767811;24;20099;-81
2023/09/08 04:18:27;;;;;;;38.75;35.75;;;14.70;99.90;;;;;;5815843;24;20023;-81
2023/09/08 04:22:44;;;;;;;40.38;36.90;;;14.60;99.90;;;;;;5821195;24;20068;-81
2023/09/08 04:27:01;;;;;;;33.40;30.80;;;14.60;99.90;;;;;;5669128;25;20028;-81
2023/09/08 04:34:23;;;;;;;38.45;35.35;;;14.80;99.90;;;;;;5615953;25;20029;-82
2023/09/08 04:38:12;;;;;;;34.10;31.10;;;14.80;99.90;;;;;;5652694;25;20028;-81
2023/09/08 04:45:08;;;;;;;42.97;39.45;;;14.80;99.90;;;;;;5734987;24;20017;-82
2023/09/08 04:48:57;;;;;;;;;;;14.70;99.90;;;;;;5732723;24;20055;-82
2023/09/08 06:17:06;;;;;;;54.60;49.97;;;14.80;99.90;;;;;;6125258;23;20460;-79
2023/09/08 06:19:31;;;;;;;46.03;42.50;;;15.00;99.90;;;;;;6100473;23;20018;-78
2023/09/08 06:21:57;;;;;;;46.88;42.92;;;15.00;99.90;;;;;;6076064;23;20045;-78
2023/09/08 06:24:24;;;;;;;45.78;42.15;;;15.10;99.90;;;;;;6076822;23;20058;-79
2023/09/08 06:26:50;;;;;;;59.88;53.83;;;15.20;99.90;;;;;;6075641;23;20014;-79
2023/09/08 06:29:16;;;;;;;51.35;47.05;;;15.30;99.90;;;;;;6076233;23;20014;-79
2023/09/08 06:31:42;;;;;;;48.65;44.53;;;15.30;99.90;;;;;;6077269;23;20016;-79
2023/09/08 06:34:08;;;;;;;40.45;37.10;;;15.40;99.90;;;;;;6076791;23;20021;-79
2023/09/08 06:36:34;;;;;;;36.67;33.92;;;15.50;99.90;;;;;;6076321;23;20089;-80
2023/09/08 06:39:00;;;;;;;44.72;41.10;;;15.50;99.90;;;;;;6076581;23;20014;-79
2023/09/08 06:41:27;;;;;;;50.20;46.00;;;15.60;99.90;;;;;;6076876;23;20064;-79
2023/09/08 06:44:22;;;;;;;55.42;50.80;;;15.60;99.90;;;;;;6075247;23;20013;-79
2023/09/08 06:50:42;;;;;;;;;;;;;;;;;;;;;
2023/09/08 06:53:48;;;;;;;57.58;52.88;;;15.90;99.90;;;;;;6100078;23;20085;-81
2023/09/08 06:57:30;;;;;;;41.75;38.30;;;16.00;99.90;;;;;;6100155;23;20144;-81
2023/09/08 07:00:17;;;;;;;47.60;43.78;;;16.10;99.90;;;;;;6055287;23;20010;-81
2023/09/08 07:03:36;;;;;;;35.15;32.55;;;16.20;99.90;;;;;;6077391;23;20014;-80
2023/09/08 07:09:59;;;;;;;43.10;39.75;;;16.40;99.90;;;;;;6086450;23;20572;-81
2023/09/08 07:12:28;;;;;;;41.88;38.60;;;16.50;99.90;;;;;;6077044;23;20014;-79
2023/09/08 07:14:59;;;;;;;36.33;33.42;;;16.60;99.90;;;;;;6078259;23;20014;-80
2023/09/08 07:25:42;;;;;;;;;;;;;;;;;;;;;
2023/09/08 07:29:30;;;;;;;31.05;28.60;;;17.10;99.90;;;;;;5965674;23;20054;-81
2023/09/08 07:32:26;;;;;;;29.75;27.20;;;17.30;99.90;;;;;;5946195;23;20024;-80
2023/09/08 07:34:58;;;;;;;31.90;28.83;;;17.50;99.90;;;;;;6018548;23;20253;-80
2023/09/08 07:41:20;;;;;;;25.20;23.13;;;17.70;99.90;;;;;;6103686;23;20021;-81
2023/09/08 07:44:01;;;;;;;24.75;22.65;;;17.90;99.90;;;;;;6056301;23;20014;-81
2023/09/08 07:47:05;;;;;;;25.67;23.55;;;17.90;99.90;;;;;;6081324;23;20014;-80
2023/09/08 07:49:49;;;;;;;25.85;23.80;;;18.10;99.90;;;;;;6132703;23;20527;-79
2023/09/08 07:52:15;;;;;;;24.92;22.73;;;18.20;99.90;;;;;;6080111;23;20458;-79
2023/09/08 07:54:43;;;;;;;24.95;22.95;;;18.40;99.90;;;;;;6079348;23;20328;-79
2023/09/08 07:57:09;;;;;;;24.63;22.52;;;18.40;99.90;;;;;;6080406;23;20018;-79
2023/09/08 08:02:38;;;;;;;24.30;22.30;;;18.70;99.90;;;;;;6088566;23;20073;-79
2023/09/08 08:05:07;;;;;;;21.63;19.83;;;18.90;99.90;;;;;;6078255;23;20014;-80
2023/09/08 08:07:59;;;;;;;23.80;21.75;;;19.10;99.90;;;;;;6076352;23;20366;-79
2023/09/08 08:10:25;;;;;;;21.42;19.63;;;19.20;99.90;;;;;;6077470;23;20010;-79
2023/09/08 08:13:10;;;;;;;20.20;18.60;;;19.30;99.90;;;;;;6078515;23;20010;-79
2023/09/08 08:15:42;;;;;;;20.07;18.47;;;19.40;99.90;;;;;;6075552;23;20053;-79
2023/09/08 08:18:17;;;;;;;17.90;16.35;;;19.50;99.90;;;;;;6077311;23;20246;-79
2023/09/08 08:21:00;;;;;;;17.25;15.50;;;19.70;99.90;;;;;;6078481;23;20439;-80
2023/09/08 08:24:05;;;;;;;18.70;16.87;;;19.90;99.90;;;;;;6075305;23;20251;-79
2023/09/08 08:26:58;;;;;;;16.58;15.02;;;20.00;99.90;;;;;;6073980;23;20249;-80
2023/09/08 08:29:33;;;;;;;17.50;15.82;;;20.10;99.90;;;;;;6072930;23;20014;-80
2023/09/08 08:32:30;;;;;;;17.05;15.65;;;20.30;99.90;;;;;;6077426;23;20028;-80
2023/09/08 08:35:50;;;;;;;16.33;14.82;;;20.40;99.90;;;;;;6100128;23;20010;-80
2023/09/08 08:38:25;;;;;;;16.17;14.77;;;20.70;99.90;;;;;;6097861;23;20092;-81
2023/09/08 08:41:34;;;;;;;14.52;13.23;;;21.60;99.90;;;;;;6078680;23;20017;-82
2023/09/08 08:44:50;;;;;;;13.65;12.32;;;22.80;99.90;;;;;;6038389;23;20019;-81
2023/09/08 08:48:14;;;;;;;12.48;10.45;;;23.90;99.90;;;;;;5929467;24;20366;-82
2023/09/08 08:51:28;;;;;;;11.73;10.73;;;24.60;99.90;;;;;;5932814;24;20069;-84
2023/09/08 09:06:15;;;;;;;;;;;;;;;;;;;;;
2023/09/08 11:00:25;;;;;;;9.07;6.43;;;30.50;89.90;;;;;;6176701;23;20044;-79
2023/09/08 11:02:51;;;;;;;10.50;6.47;;;30.60;92.90;;;;;;6162757;23;20013;-79
2023/09/08 11:05:18;;;;;;;6.85;6.25;;;30.80;88.10;;;;;;6162712;23;20460;-79
2023/09/08 11:07:45;;;;;;;8.05;5.97;;;30.90;91.70;;;;;;6134907;23;20451;-79
2023/09/08 11:10:12;;;;;;;8.80;6.30;;;31.00;81.20;;;;;;6161497;23;20432;-80
2023/09/08 11:12:37;;;;;;;67.30;8.85;;;31.00;87.80;;;;;;6160980;23;20005;-79
2023/09/08 11:15:07;;;;;;;7.18;6.07;;;31.00;80.70;;;;;;6137801;23;20081;-79
2023/09/08 11:17:34;;;;;;;9.00;6.25;;;30.80;82.30;;;;;;6162399;23;20465;-79
2023/09/08 11:20:00;;;;;;;7.43;6.50;;;30.80;88.80;;;;;;6137334;23;20013;-79
2023/09/08 11:22:26;;;;;;;6.80;6.03;;;30.80;88.40;;;;;;6137591;23;20048;-81
2023/09/08 11:24:56;;;;;;;6.60;5.90;;;31.00;91.30;;;;;;6161379;23;20020;-78
2023/09/08 11:27:22;;;;;;;9.75;5.97;;;31.10;80.80;;;;;;6157222;23;20099;-77
2023/09/08 11:29:49;;;;;;;6.93;5.82;;;31.40;87.20;;;;;;6154759;23;20040;-77
2023/09/08 11:32:15;;;;;;;6.68;5.88;;;31.70;77.30;;;;;;6157643;23;20005;-77
2023/09/08 11:34:43;;;;;;;5.95;5.35;;;31.90;77.90;;;;;;6157773;23;20404;-77
2023/09/08 11:37:13;;;;;;;6.53;5.05;;;32.10;71.30;;;;;;6158272;23;20334;-78
2023/09/08 11:39:43;;;;;;;7.45;5.40;;;32.30;75.40;;;;;;6157729;23;20520;-77
2023/09/08 11:42:11;;;;;;;9.13;5.50;;;32.40;75.90;;;;;;6157890;23;20016;-77
2023/09/08 11:44:37;;;;;;;6.50;5.57;;;32.50;75.00;;;;;;6157946;23;20060;-77
2023/09/08 11:47:06;;;;;;;7.15;6.18;;;32.50;70.50;;;;;;6156858;23;20521;-77
2023/09/08 11:49:39;;;;;;;6.10;5.50;;;32.50;71.70;;;;;;6158828;23;20461;-78
2023/09/08 11:52:06;;;;;;;5.60;5.10;;;32.40;73.70;;;;;;6134794;23;20005;-78
2023/09/08 11:54:33;;;;;;;6.85;5.40;;;32.40;70.80;;;;;;6162431;23;20008;-78
2023/09/08 11:57:04;;;;;;;7.50;5.18;;;32.30;67.50;;;;;;6166376;23;20076;-79
2023/09/08 11:59:32;;;;;;;7.68;5.47;;;32.20;66.80;;;;;;6159098;23;20601;-77
2023/09/08 12:01:58;;;;;;;6.53;5.07;;;32.10;67.30;;;;;;6158030;23;20017;-77
2023/09/08 12:04:23;;;;;;;7.15;5.50;;;32.10;66.10;;;;;;6157139;23;20439;-77
2023/09/08 12:06:51;;;;;;;5.95;5.35;;;32.20;68.90;;;;;;6156495;23;20075;-77
2023/09/08 12:09:17;;;;;;;7.03;5.60;;;32.30;68.90;;;;;;6133646;23;20005;-80
2023/09/08 12:11:43;;;;;;;9.60;5.63;;;32.40;68.00;;;;;;6137356;23;20045;-82
2023/09/08 12:14:11;;;;;;;7.20;5.75;;;32.50;70.40;;;;;;6167891;23;20036;-81
2023/09/08 12:16:37;;;;;;;6.85;5.30;;;32.60;69.00;;;;;;6168009;23;20136;-82
2023/09/08 12:19:02;;;;;;;5.97;5.38;;;32.70;69.10;;;;;;6164612;23;20013;-81
2023/09/08 12:21:28;;;;;;;5.70;5.20;;;32.80;68.20;;;;;;6162288;23;20017;-80
2023/09/08 12:23:54;;;;;;;7.40;5.22;;;32.90;66.30;;;;;;6163819;23;20057;-81
2023/09/08 12:26:20;;;;;;;5.93;5.30;;;33.10;67.10;;;;;;6140777;23;20093;-81
2023/09/08 12:28:47;;;;;;;5.90;5.07;;;33.10;66.20;;;;;;6164712;23;20017;-81
2023/09/08 12:31:14;;;;;;;6.72;5.28;;;33.20;64.80;;;;;;6137073;23;20477;-78
2023/09/08 12:33:39;;;;;;;5.95;5.22;;;33.20;63.80;;;;;;6160157;23;20092;-79
2023/09/08 12:36:19;;;;;;;7.90;5.32;;;33.40;65.70;;;;;;6162894;23;20028;-80
2023/09/08 12:38:49;;;;;;;5.78;5.18;;;33.50;65.40;;;;;;6163442;23;20009;-79
2023/09/08 12:41:15;;;;;;;5.90;5.15;;;33.50;64.40;;;;;;6162828;23;20358;-79
2023/09/08 12:43:41;;;;;;;6.25;5.65;;;33.50;64.80;;;;;;6163619;23;20017;-80
2023/09/08 12:46:07;;;;;;;8.13;5.65;;;33.30;62.60;;;;;;6163457;23;20019;-80
2023/09/08 12:48:32;;;;;;;6.78;5.63;;;33.20;64.60;;;;;;6163680;23;20394;-80
2023/09/08 12:50:58;;;;;;;6.60;5.35;;;33.10;63.60;;;;;;6164018;23;20400;-80
2023/09/08 12:53:24;;;;;;;7.45;5.80;;;32.90;62.90;;;;;;6164356;23;20019;-80
2023/09/08 12:55:50;;;;;;;7.40;5.43;;;32.70;62.70;;;;;;6139600;23;20012;-81
2023/09/08 12:58:16;;;;;;;5.93;5.43;;;32.70;64.20;;;;;;6139310;23;20032;-79
2023/09/08 13:00:45;;;;;;;7.10;5.70;;;32.70;65.10;;;;;;6158973;23;20322;-78
2023/09/08 13:03:11;;;;;;;6.22;5.57;;;32.60;64.20;;;;;;6134956;23;20065;-80
2023/09/08 13:05:38;;;;;;;9.48;5.50;;;32.50;63.40;;;;;;6160821;23;20048;-79
2023/09/08 13:08:04;;;;;;;5.90;5.40;;;32.60;65.00;;;;;;6134776;23;20009;-77
2023/09/08 13:10:30;;;;;;;15.27;5.47;;;32.60;65.70;;;;;;6156070;23;20009;-77
2023/09/08 13:12:55;;;;;;;7.70;5.43;;;32.60;64.30;;;;;;6156702;23;20322;-77
2023/09/08 13:15:21;;;;;;;6.93;5.40;;;32.50;64.20;;;;;;6131953;23;20009;-77
2023/09/08 13:17:46;;;;;;;6.63;5.45;;;32.50;64.50;;;;;;6156982;23;20056;-77
2023/09/08 13:20:12;;;;;;;6.50;5.30;;;32.50;67.10;;;;;;6157701;23;20021;-78
2023/09/08 13:22:38;;;;;;;6.68;5.90;;;32.50;65.30;;;;;;6158631;23;20017;-77
2023/09/08 13:25:04;;;;;;;7.53;5.53;;;32.50;65.80;;;;;;6156191;23;20013;-78
2023/09/08 13:27:29;;;;;;;7.40;5.40;;;32.60;65.30;;;;;;6156164;23;20045;-77
2023/09/08 13:30:11;;;;;;;5.70;5.20;;;32.80;64.40;;;;;;6131060;23;20023;-77
2023/09/08 13:32:36;;;;;;;6.30;5.70;;;33.00;65.10;;;;;;6157149;23;20104;-78
2023/09/08 13:35:02;;;;;;;7.35;5.68;;;33.00;66.70;;;;;;6159629;23;20465;-80
2023/09/08 13:37:30;;;;;;;6.45;5.50;;;32.90;65.90;;;;;;6165273;23;20017;-80
2023/09/08 13:39:56;;;;;;;7.80;5.38;;;32.70;65.40;;;;;;6162786;23;20013;-79
2023/09/08 13:42:21;;;;;;;6.53;5.93;;;32.40;65.50;;;;;;6163517;23;20088;-80
2023/09/08 13:44:47;;;;;;;6.80;5.20;;;32.30;66.20;;;;;;6139061;23;20021;-79
2023/09/08 13:47:13;;;;;;;6.80;4.75;;;32.20;64.90;;;;;;6162152;23;20092;-78
2023/09/08 13:49:38;;;;;;;5.88;4.80;;;32.10;64.20;;;;;;6160306;23;20071;-80
2023/09/08 13:52:04;;;;;;;5.53;4.95;;;31.90;64.10;;;;;;6163009;23;20424;-80
2023/09/08 13:54:30;;;;;;;5.80;5.30;;;31.80;64.30;;;;;;6164584;23;20016;-80
2023/09/08 13:57:00;;;;;;;5.65;5.05;;;31.70;66.10;;;;;;6138643;23;20028;-80
2023/09/08 13:59:26;;;;;;;6.03;5.38;;;31.60;66.20;;;;;;6163960;23;20063;-80
2023/09/08 14:01:53;;;;;;;6.60;5.00;;;31.50;65.50;;;;;;6164914;23;20380;-80
2023/09/08 14:04:19;;;;;;;5.50;5.00;;;31.40;67.00;;;;;;6141253;23;20016;-80
2023/09/08 14:06:45;;;;;;;6.65;5.00;;;31.30;66.10;;;;;;6168133;23;20047;-80
2023/09/08 14:09:10;;;;;;;6.40;5.00;;;31.30;67.10;;;;;;6138945;23;20009;-79
2023/09/08 14:11:36;;;;;;;6.03;5.10;;;31.20;66.30;;;;;;6163833;23;20451;-80
2023/09/08 14:14:03;;;;;;;7.47;5.30;;;31.50;66.20;;;;;;6161322;23;20009;-78
2023/09/08 14:16:29;;;;;;;6.93;5.22;;;31.60;65.60;;;;;;6138813;23;20036;-79
2023/09/08 14:18:54;;;;;;;7.18;4.90;;;31.80;64.50;;;;;;6161153;23;20017;-79
2023/09/08 14:21:20;;;;;;;6.30;5.13;;;31.80;65.80;;;;;;6161585;23;20532;-79
2023/09/08 14:23:46;;;;;;;6.03;5.40;;;31.60;65.20;;;;;;6159454;23;20028;-79
2023/09/08 14:26:11;;;;;;;6.63;5.75;;;31.40;65.10;;;;;;6136982;23;20036;-79
2023/09/08 14:28:37;;;;;;;5.75;5.15;;;31.00;65.90;;;;;;6139735;23;20013;-79
2023/09/08 14:31:03;;;;;;;10.73;5.90;;;30.80;67.20;;;;;;6165211;23;20009;-79
2023/09/08 14:33:29;;;;;;;11.07;6.05;;;30.60;68.20;;;;;;6164025;23;20350;-79
2023/09/08 14:35:55;;;;;;;7.45;5.72;;;30.30;70.00;;;;;;6162769;23;20461;-79
2023/09/08 14:38:21;;;;;;;5.97;5.43;;;30.10;70.50;;;;;;6137063;23;20035;-77
2023/09/08 14:41:01;;;;;;;6.13;5.53;;;29.80;72.60;;;;;;6158821;23;20421;-76
2023/09/08 14:43:28;;;;;;;6.13;5.30;;;29.60;74.60;;;;;;6157847;23;20013;-77
2023/09/08 14:45:56;;;;;;;5.97;5.38;;;29.30;79.00;;;;;;6157497;23;20017;-77
2023/09/08 14:48:22;;;;;;;5.72;4.85;;;29.10;78.70;;;;;;6158473;23;20013;-77
2023/09/08 14:50:47;;;;;;;5.47;4.97;;;28.90;77.90;;;;;;6157805;23;20009;-76
2023/09/08 14:53:13;;;;;;;8.00;5.15;;;28.70;83.00;;;;;;6158600;23;20048;-78
2023/09/08 14:55:39;;;;;;;6.40;4.93;;;28.60;85.50;;;;;;6169923;23;20016;-81
2023/09/08 14:58:05;;;;;;;6.78;5.00;;;28.40;84.20;;;;;;6145116;23;20397;-81
2023/09/08 15:00:30;;;;;;;5.63;4.90;;;28.30;90.00;;;;;;6146223;23;20020;-81
2023/09/08 15:02:56;;;;;;;5.13;4.70;;;28.20;87.90;;;;;;6174173;23;20064;-81
2023/09/08 15:05:21;;;;;;;5.50;4.90;;;28.10;91.90;;;;;;6148646;23;20461;-81
2023/09/08 15:07:47;;;;;;;5.50;4.43;;;28.00;96.00;;;;;;6147728;23;20096;-82
2023/09/08 15:10:12;;;;;;;6.18;4.97;;;27.90;97.90;;;;;;6161711;23;20017;-76
2023/09/08 15:12:38;;;;;;;8.23;5.20;;;27.80;96.60;;;;;;6158232;23;20322;-76
2023/09/08 15:15:04;;;;;;;6.03;4.80;;;27.70;95.20;;;;;;6156769;23;20009;-76
2023/09/08 15:17:30;;;;;;;6.05;4.90;;;27.70;97.00;;;;;;6168263;23;20007;-80
2023/09/08 15:19:56;;;;;;;7.07;5.53;;;27.70;91.50;;;;;;6176521;23;20017;-81
2023/09/08 15:22:21;;;;;;;7.05;5.25;;;27.60;96.30;;;;;;6181171;23;20488;-81
2023/09/08 15:24:47;;;;;;;7.25;5.38;;;27.60;98.40;;;;;;6136666;23;20017;-81
2023/09/08 15:27:12;;;;;;;5.10;4.60;;;27.60;99.10;;;;;;6135350;23;20017;-81
2023/09/08 15:29:38;;;;;;;6.15;5.05;;;27.50;99.30;;;;;;6138766;23;20037;-81
2023/09/08 15:32:05;;;;;;;5.85;5.25;;;27.40;99.90;;;;;;6161874;23;20048;-81
2023/09/08 15:34:31;;;;;;;7.30;5.45;;;27.30;99.90;;;;;;6136464;23;20016;-81
2023/09/08 15:36:57;;;;;;;6.72;5.40;;;27.30;99.90;;;;;;6136878;23;20017;-81
2023/09/08 15:39:23;;;;;;;6.10;5.60;;;27.20;99.90;;;;;;6162203;23;20092;-81
2023/09/08 15:41:48;;;;;;;6.40;5.32;;;27.10;99.90;;;;;;6163891;23;20025;-80
2023/09/08 15:44:14;;;;;;;6.63;5.20;;;27.10;99.90;;;;;;6162774;23;20017;-81
2023/09/08 15:46:40;;;;;;;5.97;5.43;;;27.10;99.90;;;;;;6161028;23;20017;-81
2023/09/08 15:49:06;;;;;;;6.60;5.80;;;27.00;99.90;;;;;;6162272;23;20473;-81
2023/09/08 15:51:32;;;;;;;6.95;5.82;;;26.90;99.90;;;;;;6163477;23;20128;-81
2023/09/08 15:53:58;;;;;;;6.10;5.22;;;26.90;99.90;;;;;;6164315;23;20280;-81
2023/09/08 15:56:23;;;;;;;8.02;5.80;;;26.90;99.90;;;;;;6158441;23;20351;-79
2023/09/08 15:58:49;;;;;;;6.07;5.47;;;26.80;99.90;;;;;;6157273;23;20013;-79
2023/09/08 16:01:15;;;;;;;6.00;5.07;;;26.70;99.90;;;;;;6134247;23;20013;-78
2023/09/08 16:03:40;;;;;;;6.07;5.30;;;26.80;99.90;;;;;;6158047;23;20028;-79
2023/09/08 16:06:07;;;;;;;6.10;5.53;;;26.70;99.90;;;;;;6157276;23;20088;-79
2023/09/08 16:08:33;;;;;;;6.32;5.70;;;26.60;99.90;;;;;;6156904;23;20380;-78
2023/09/08 16:11:01;;;;;;;6.68;6.07;;;26.50;99.90;;;;;;6133778;23;20013;-78
2023/09/08 16:13:26;;;;;;;6.53;5.72;;;26.50;99.90;;;;;;6159933;23;20043;-78
2023/09/08 16:15:52;;;;;;;7.80;5.90;;;26.40;99.90;;;;;;6157870;23;20013;-78
2023/09/08 16:18:17;;;;;;;8.40;5.78;;;26.40;99.90;;;;;;6155446;23;20457;-76
2023/09/08 16:20:43;;;;;;;8.40;5.90;;;26.30;99.90;;;;;;6156916;23;20009;-77
2023/09/08 16:23:09;;;;;;;7.18;5.80;;;26.20;99.90;;;;;;6156976;23;20013;-78
2023/09/08 16:25:35;;;;;;;6.57;5.53;;;26.20;99.90;;;;;;6157478;23;20107;-78
2023/09/08 16:28:00;;;;;;;6.00;5.10;;;26.10;99.90;;;;;;6156026;23;20401;-79
2023/09/08 16:30:26;;;;;;;7.15;5.00;;;26.10;99.90;;;;;;6132818;23;20013;-79
2023/09/08 16:32:52;;;;;;;6.25;5.25;;;26.10;99.90;;;;;;6131918;23;20016;-78
2023/09/08 16:35:18;;;;;;;6.75;5.70;;;26.00;99.90;;;;;;6157442;23;20013;-78
2023/09/08 16:37:44;;;;;;;6.40;5.55;;;25.90;99.90;;;;;;6156804;23;20067;-78
2023/09/08 16:40:10;;;;;;;6.50;5.90;;;25.90;99.90;;;;;;6157416;23;20021;-77
2023/09/08 16:42:36;;;;;;;6.38;5.78;;;25.80;99.90;;;;;;6133285;23;20036;-79
2023/09/08 16:45:02;;;;;;;6.45;5.80;;;25.70;99.90;;;;;;6157956;23;20084;-78
2023/09/08 16:47:28;;;;;;;10.98;5.75;;;25.70;99.90;;;;;;6156098;23;20045;-78
2023/09/08 16:49:53;;;;;;;8.32;6.07;;;25.60;99.90;;;;;;6157005;23;20016;-78
2023/09/08 16:52:20;;;;;;;7.20;6.03;;;25.60;99.90;;;;;;6156866;23;20021;-77
2023/09/08 16:54:46;;;;;;;6.60;5.80;;;25.50;99.90;;;;;;6157277;23;20013;-78
2023/09/08 16:57:12;;;;;;;6.47;5.63;;;25.50;99.90;;;;;;6157141;23;20020;-78
2023/09/08 16:59:38;;;;;;;6.93;6.18;;;25.40;99.90;;;;;;6157797;23;20336;-78
2023/09/08 17:02:04;;;;;;;6.30;5.80;;;25.40;99.90;;;;;;6157340;23;20091;-78
2023/09/08 17:04:29;;;;;;;6.55;5.93;;;25.30;99.90;;;;;;6156701;23;20017;-78
2023/09/08 17:06:55;;;;;;;6.88;6.00;;;25.20;99.90;;;;;;6157064;23;20143;-78
2023/09/08 17:09:20;;;;;;;7.20;5.97;;;25.20;99.90;;;;;;6156012;23;20020;-78
2023/09/08 17:11:46;;;;;;;10.00;6.88;;;25.10;99.90;;;;;;6159187;23;20011;-78
2023/09/08 17:14:12;;;;;;;7.50;6.78;;;25.00;99.90;;;;;;6159273;23;20461;-78
2023/09/08 17:16:38;;;;;;;7.10;6.50;;;24.90;99.90;;;;;;6158335;23;20009;-78
2023/09/08 17:19:03;;;;;;;8.63;7.13;;;24.90;99.90;;;;;;6158730;23;20079;-77
2023/09/08 17:21:29;;;;;;;7.60;6.85;;;24.80;99.90;;;;;;6158732;23;20059;-77
2023/09/08 17:23:55;;;;;;;7.78;7.07;;;24.70;99.90;;;;;;6159030;23;20020;-77
2023/09/08 17:26:20;;;;;;;8.43;7.45;;;24.60;99.90;;;;;;6158964;23;20092;-77
2023/09/08 17:28:46;;;;;;;8.93;8.13;;;24.60;99.90;;;;;;6158706;23;20013;-77
2023/09/08 17:31:12;;;;;;;8.00;7.20;;;24.40;99.90;;;;;;6158584;23;20460;-77
2023/09/08 17:33:37;;;;;;;7.85;7.00;;;24.30;99.90;;;;;;6158594;23;20005;-77
2023/09/08 17:36:03;;;;;;;9.23;7.82;;;24.20;99.90;;;;;;6159081;23;20013;-77
2023/09/08 17:38:31;;;;;;;8.70;7.65;;;24.10;99.90;;;;;;6158152;23;20021;-77
2023/09/08 17:40:57;;;;;;;8.57;7.78;;;23.90;99.90;;;;;;6159052;23;20019;-77
2023/09/08 17:43:23;;;;;;;8.07;7.28;;;23.90;99.90;;;;;;6158886;23;20017;-77
2023/09/08 17:45:48;;;;;;;8.55;7.82;;;23.80;99.90;;;;;;6158529;23;20017;-77
2023/09/08 17:48:14;;;;;;;8.00;7.40;;;23.60;99.90;;;;;;6158332;23;20020;-77
2023/09/08 17:50:39;;;;;;;9.02;8.25;;;23.50;99.90;;;;;;6158842;23;20441;-77
2023/09/08 17:53:05;;;;;;;9.25;8.35;;;23.40;99.90;;;;;;6134295;23;20358;-77
2023/09/08 17:55:30;;;;;;;10.90;9.00;;;23.30;99.90;;;;;;6158522;23;20319;-77
2023/09/08 17:57:56;;;;;;;9.07;8.18;;;23.10;99.90;;;;;;6158438;23;20096;-78
2023/09/08 18:00:22;;;;;;;9.20;8.40;;;23.00;99.90;;;;;;6158581;23;20016;-77
2023/09/08 18:02:47;;;;;;;9.43;8.45;;;22.90;99.90;;;;;;6158758;23;20100;-77
2023/09/08 18:05:13;;;;;;;9.65;8.75;;;22.80;99.90;;;;;;6158289;23;20052;-77
2023/09/08 18:07:39;;;;;;;10.57;8.75;;;22.60;99.90;;;;;;6133762;23;20462;-77
2023/09/08 18:10:06;;;;;;;10.55;9.70;;;22.50;99.90;;;;;;6158159;23;20346;-77
2023/09/08 18:12:32;;;;;;;10.98;9.88;;;22.40;99.90;;;;;;6158358;23;20009;-77
2023/09/08 18:14:58;;;;;;;10.18;9.27;;;22.40;99.90;;;;;;6158641;23;20017;-77
2023/09/08 18:17:23;;;;;;;10.63;9.80;;;22.30;99.90;;;;;;6157442;23;20013;-77
2023/09/08 18:19:49;;;;;;;11.85;10.95;;;22.20;99.90;;;;;;6158291;23;20021;-77
2023/09/08 18:22:15;;;;;;;11.98;10.88;;;22.10;99.90;;;;;;6183242;23;20405;-78
2023/09/08 18:24:40;;;;;;;12.73;10.93;;;22.00;99.90;;;;;;6183394;23;20092;-78
2023/09/08 18:27:06;;;;;;;14.23;13.13;;;21.90;99.90;;;;;;6157751;23;20024;-77
2023/09/08 18:29:32;;;;;;;14.07;12.88;;;21.80;99.90;;;;;;6158295;23;20013;-77
2023/09/08 18:31:59;;;;;;;15.70;14.32;;;21.70;99.90;;;;;;6158398;23;20013;-77
2023/09/08 18:34:24;;;;;;;14.52;12.93;;;21.70;99.90;;;;;;6158429;23;20013;-77
2023/09/08 18:36:50;;;;;;;12.60;11.60;;;21.70;99.90;;;;;;6158597;23;20020;-77
2023/09/08 18:39:16;;;;;;;11.32;10.32;;;21.60;99.90;;;;;;6157652;23;20017;-77
2023/09/08 18:41:42;;;;;;;14.25;13.02;;;21.50;99.90;;;;;;6158236;23;20459;-77
2023/09/08 18:44:07;;;;;;;15.70;14.23;;;21.40;99.90;;;;;;6133979;23;20131;-77
2023/09/08 18:46:33;;;;;;;17.25;15.60;;;21.40;99.90;;;;;;6158453;23;20068;-77
2023/09/08 18:48:58;;;;;;;17.60;16.10;;;21.30;99.90;;;;;;6157944;23;20019;-77
2023/09/08 18:51:24;;;;;;;20.70;18.98;;;21.20;99.90;;;;;;6183328;23;20346;-77
2023/09/08 18:53:50;;;;;;;19.17;17.58;;;21.20;99.90;;;;;;6156666;23;20009;-77
2023/09/08 18:56:17;;;;;;;18.17;16.67;;;21.10;99.90;;;;;;6157111;23;20009;-77
2023/09/08 18:58:49;;;;;;;18.85;17.15;;;21.00;99.90;;;;;;6156885;23;20009;-78
2023/09/08 19:01:14;;;;;;;17.55;16.25;;;21.00;99.90;;;;;;6183053;23;20092;-77
2023/09/08 19:03:43;;;;;;;16.05;14.68;;;20.90;99.90;;;;;;6131972;23;20059;-76
2023/09/08 19:06:10;;;;;;;15.95;14.70;;;20.90;99.90;;;;;;6157432;23;20101;-77
2023/09/08 19:08:36;;;;;;;17.58;16.30;;;20.80;99.90;;;;;;6182065;23;20017;-77
2023/09/08 19:11:01;;;;;;;17.50;16.10;;;20.70;99.90;;;;;;6156671;23;20012;-77
2023/09/08 19:13:27;;;;;;;17.75;16.35;;;20.60;99.90;;;;;;6157333;23;20122;-77
2023/09/08 19:15:53;;;;;;;18.75;16.85;;;20.60;99.90;;;;;;6181476;23;20040;-76
2023/09/08 19:18:18;;;;;;;19.08;17.60;;;20.60;99.90;;;;;;6157243;23;20382;-76
2023/09/08 19:20:44;;;;;;;18.13;16.52;;;20.50;99.90;;;;;;6157886;23;20020;-76
2023/09/08 19:23:10;;;;;;;17.55;15.95;;;20.50;99.90;;;;;;6157402;23;20024;-76
2023/09/08 19:25:41;;;;;;;20.35;18.65;;;20.40;99.90;;;;;;6157356;23;20017;-77
2023/09/08 19:28:07;;;;;;;18.58;17.23;;;20.40;99.90;;;;;;6156986;23;20020;-76
2023/09/08 19:30:33;;;;;;;19.25;17.65;;;20.30;99.90;;;;;;6157584;23;20442;-77
2023/09/08 19:32:58;;;;;;;21.27;19.52;;;20.30;99.90;;;;;;6157006;23;20016;-77
2023/09/08 19:35:26;;;;;;;21.15;19.42;;;20.20;99.90;;;;;;6131179;23;20064;-78
2023/09/08 19:37:56;;;;;;;23.95;22.05;;;20.20;99.90;;;;;;6154824;23;20020;-76